createdAt,value
2019-04-29T00:01:34.435Z,11.00
2019-04-29T00:04:03.922Z,11.00
2019-04-29T00:06:33.527Z,10.90
2019-04-29T00:09:03.035Z,10.90
2019-04-29T00:11:34.182Z,10.90
2019-04-29T00:14:03.697Z,10.90
2019-04-29T00:16:42.088Z,10.90
2019-04-29T00:19:37.995Z,10.90
2019-04-29T00:22:07.513Z,10.80
2019-04-29T00:24:37.066Z,10.80
2019-04-29T00:27:06.838Z,10.80
2019-04-29T00:29:36.731Z,10.80
2019-04-29T00:32:07.043Z,10.70
2019-04-29T00:34:36.600Z,10.70
2019-04-29T00:37:13.268Z,10.70
2019-04-29T00:40:00.498Z,10.70
2019-04-29T00:42:44.831Z,10.70
2019-04-29T00:45:14.381Z,10.60
2019-04-29T00:47:44.252Z,10.60
2019-04-29T00:50:13.787Z,10.60
2019-04-29T00:52:43.410Z,10.50
2019-04-29T00:55:15.519Z,10.50
2019-04-29T00:57:45.049Z,10.40
2019-04-29T01:00:19.590Z,10.40
2019-04-29T01:02:49.214Z,10.30
2019-04-29T01:05:18.891Z,10.30
2019-04-29T01:07:48.423Z,10.20
2019-04-29T01:10:18.105Z,10.20
2019-04-29T01:12:47.625Z,10.10
2019-04-29T01:15:17.442Z,10.10
2019-04-29T01:17:47.049Z,10.10
2019-04-29T01:20:16.650Z,10.00
2019-04-29T01:22:46.203Z,10.00
2019-04-29T01:25:15.746Z,10.00
2019-04-29T01:27:54.266Z,10.00
2019-04-29T01:31:23.545Z,9.90
2019-04-29T01:33:56.760Z,9.90
2019-04-29T01:36:34.393Z,10.00
2019-04-29T01:39:06.605Z,9.90
2019-04-29T01:42:04.449Z,9.90
2019-04-29T01:44:35.720Z,9.90
2019-04-29T01:47:05.228Z,9.90
2019-04-29T01:49:34.779Z,9.90
2019-04-29T01:52:04.317Z,9.90
2019-04-29T01:54:33.846Z,9.90
2019-04-29T01:57:03.374Z,9.90
2019-04-29T01:59:33.971Z,9.90
2019-04-29T02:02:03.538Z,9.90
2019-04-29T02:04:33.133Z,9.80
2019-04-29T02:07:03.682Z,9.80
2019-04-29T02:09:55.406Z,9.80
2019-04-29T02:12:24.923Z,9.80
2019-04-29T02:14:54.511Z,9.80
2019-04-29T02:17:24.306Z,9.80
2019-04-29T02:19:54.112Z,9.70
2019-04-29T02:22:33.853Z,9.70
2019-04-29T02:25:28.699Z,9.70
2019-04-29T02:27:58.518Z,9.70
2019-04-29T02:30:44.092Z,9.60
2019-04-29T02:33:13.702Z,9.60
2019-04-29T02:35:44.099Z,9.60
2019-04-29T02:38:32.694Z,9.50
2019-04-29T02:41:15.338Z,9.50
2019-04-29T02:43:46.939Z,9.50
2019-04-29T02:46:16.562Z,9.50
2019-04-29T02:48:46.414Z,9.50
2019-04-29T02:51:35.155Z,9.50
2019-04-29T02:54:04.761Z,9.50
2019-04-29T02:56:34.611Z,9.40
2019-04-29T02:59:05.806Z,9.50
2019-04-29T03:01:43.519Z,9.50
2019-04-29T03:04:32.274Z,9.40
2019-04-29T03:07:01.814Z,9.40
2019-04-29T03:09:33.399Z,9.50
2019-04-29T03:12:03.027Z,9.40
2019-04-29T03:14:32.523Z,9.50
2019-04-29T03:17:02.246Z,9.40
2019-04-29T03:19:35.381Z,9.40
2019-04-29T03:22:06.306Z,9.40
2019-04-29T03:24:36.206Z,9.50
2019-04-29T03:27:05.850Z,9.40
2019-04-29T03:29:35.379Z,9.40
2019-04-29T03:32:04.918Z,9.40
2019-04-29T03:34:34.845Z,9.40
2019-04-29T03:37:04.702Z,9.40
2019-04-29T03:39:35.457Z,9.40
2019-04-29T03:42:07.404Z,9.40
2019-04-29T03:44:36.787Z,9.40
2019-04-29T03:47:06.718Z,9.40
2019-04-29T03:49:36.621Z,9.40
2019-04-29T03:52:06.196Z,9.40
2019-04-29T03:54:35.717Z,9.40
2019-04-29T03:57:05.774Z,9.50
2019-04-29T03:59:35.305Z,9.50
2019-04-29T04:02:22.814Z,9.50
2019-04-29T04:05:06.673Z,9.50
2019-04-29T04:07:50.306Z,9.50
2019-04-29T04:10:20.064Z,9.50
2019-04-29T04:12:50.204Z,9.50
2019-04-29T04:15:19.723Z,9.50
2019-04-29T04:18:01.166Z,9.50
2019-04-29T04:20:30.775Z,9.50
2019-04-29T04:23:00.410Z,9.50
2019-04-29T04:25:29.944Z,9.60
2019-04-29T04:27:59.710Z,9.60
2019-04-29T04:30:29.278Z,9.60
2019-04-29T04:32:59.166Z,9.60
2019-04-29T04:35:29.777Z,9.60
2019-04-29T04:37:59.844Z,9.70
2019-04-29T04:40:34.010Z,9.70
2019-04-29T04:43:03.509Z,9.70
2019-04-29T04:45:33.643Z,9.70
2019-04-29T04:48:03.179Z,9.80
2019-04-29T04:50:32.702Z,9.80
2019-04-29T04:53:02.205Z,9.80
2019-04-29T04:55:33.818Z,9.80
2019-04-29T04:58:03.426Z,9.80
2019-04-29T05:00:34.605Z,9.80
2019-04-29T05:03:04.123Z,9.90
2019-04-29T05:05:33.876Z,9.90
2019-04-29T05:08:04.543Z,10.00
2019-04-29T05:10:34.181Z,10.00
2019-04-29T05:13:03.690Z,10.00
2019-04-29T05:15:33.338Z,10.10
2019-04-29T05:18:02.879Z,10.10
2019-04-29T05:20:32.661Z,10.20
2019-04-29T05:23:02.196Z,10.20
2019-04-29T05:25:32.830Z,10.30
2019-04-29T05:28:02.564Z,10.30
2019-04-29T05:30:32.263Z,10.40
2019-04-29T05:33:01.931Z,10.40
2019-04-29T05:35:40.426Z,10.50
2019-04-29T05:38:27.922Z,10.50
2019-04-29T05:40:58.676Z,10.60
2019-04-29T05:46:12.953Z,10.70
2019-04-29T05:48:42.540Z,10.80
2019-04-29T05:51:34.157Z,10.80
2019-04-29T05:54:04.342Z,10.90
2019-04-29T05:56:33.887Z,10.90
2019-04-29T05:59:03.472Z,11.00
2019-04-29T06:01:33.069Z,11.00
2019-04-29T06:04:02.674Z,11.00
2019-04-29T06:06:32.218Z,11.00
2019-04-29T06:09:02.267Z,11.10
2019-04-29T06:11:31.986Z,11.10
2019-04-29T06:14:01.735Z,11.20
2019-04-29T06:16:31.261Z,11.20
2019-04-29T06:19:04.190Z,11.30
2019-04-29T06:21:32.179Z,11.30
2019-04-29T06:24:04.162Z,11.30
2019-04-29T06:26:34.314Z,11.30
2019-04-29T06:29:06.093Z,11.40
2019-04-29T06:31:35.818Z,11.40
2019-04-29T06:34:06.488Z,11.50
2019-04-29T06:36:36.324Z,11.60
2019-04-29T06:39:06.768Z,11.60
2019-04-29T06:41:36.386Z,11.60
2019-04-29T06:44:15.848Z,11.70
2019-04-29T06:46:37.225Z,11.70
2019-04-29T06:49:10.502Z,11.80
2019-04-29T06:51:37.982Z,11.80
2019-04-29T06:54:07.865Z,11.80
2019-04-29T06:56:37.734Z,11.90
2019-04-29T06:59:11.907Z,12.00
2019-04-29T07:01:39.434Z,12.00
2019-04-29T07:04:09.047Z,12.00
2019-04-29T07:06:38.896Z,12.00
2019-04-29T07:09:08.514Z,12.10
2019-04-29T07:11:38.430Z,12.10
2019-04-29T07:14:09.341Z,12.10
2019-04-29T07:16:39.057Z,12.20
2019-04-29T07:19:08.718Z,12.20
2019-04-29T07:21:41.920Z,12.20
2019-04-29T07:24:09.901Z,12.30
2019-04-29T07:26:39.641Z,12.40
2019-04-29T07:29:09.522Z,12.50
2019-04-29T07:31:39.538Z,12.50
2019-04-29T07:34:09.472Z,12.60
2019-04-29T07:36:40.674Z,12.70
2019-04-29T07:39:10.271Z,12.80
2019-04-29T07:41:40.052Z,12.80
2019-04-29T07:44:13.773Z,12.90
2019-04-29T07:46:56.741Z,12.90
2019-04-29T07:49:18.922Z,13.00
2019-04-29T07:51:48.555Z,13.00
2019-04-29T07:54:18.454Z,13.10
2019-04-29T07:56:48.146Z,13.10
2019-04-29T07:59:17.715Z,13.10
2019-04-29T08:01:47.539Z,13.20
2019-04-29T08:04:17.356Z,13.20
2019-04-29T08:06:46.954Z,13.20
2019-04-29T08:09:17.595Z,13.20
2019-04-29T08:11:47.544Z,13.30
2019-04-29T08:14:17.364Z,13.30
2019-04-29T08:16:47.171Z,13.30
2019-04-29T08:19:16.874Z,13.30
2019-04-29T08:21:49.749Z,13.30
2019-04-29T08:24:19.434Z,13.30
2019-04-29T08:26:48.951Z,13.30
2019-04-29T08:29:18.773Z,13.30
2019-04-29T08:31:51.886Z,13.30
2019-04-29T08:34:23.089Z,13.30
2019-04-29T08:36:51.266Z,13.30
2019-04-29T08:39:21.018Z,13.30
2019-04-29T08:41:50.940Z,13.30
2019-04-29T08:44:31.222Z,13.30
2019-04-29T08:47:11.613Z,13.40
2019-04-29T08:49:41.281Z,13.40
2019-04-29T08:52:11.082Z,13.50
2019-04-29T08:54:41.179Z,13.50
2019-04-29T08:57:11.078Z,13.50
2019-04-29T08:59:40.971Z,13.50
2019-04-29T09:02:11.453Z,13.50
2019-04-29T09:04:52.779Z,13.50
2019-04-29T09:07:17.211Z,13.60
2019-04-29T09:09:44.310Z,13.60
2019-04-29T09:12:14.425Z,13.60
2019-04-29T09:14:44.151Z,13.60
2019-04-29T09:17:20.614Z,13.60
2019-04-29T09:19:45.126Z,13.60
2019-04-29T09:22:17.131Z,13.60
2019-04-29T09:25:05.874Z,13.70
2019-04-29T09:27:40.753Z,13.70
2019-04-29T09:30:09.314Z,13.80
2019-04-29T09:32:39.913Z,13.80
2019-04-29T09:35:09.656Z,13.90
2019-04-29T09:37:39.400Z,13.90
2019-04-29T09:40:09.763Z,13.90
2019-04-29T09:42:50.324Z,14.00
2019-04-29T09:45:27.101Z,14.10
2019-04-29T09:47:57.139Z,14.10
2019-04-29T09:50:28.568Z,14.10
2019-04-29T09:52:58.290Z,14.10
2019-04-29T09:55:27.977Z,14.10
2019-04-29T09:57:57.727Z,14.20
2019-04-29T10:00:46.946Z,14.20
2019-04-29T10:03:24.859Z,14.20
2019-04-29T10:06:17.531Z,14.30
2019-04-29T10:08:47.090Z,14.30
2019-04-29T10:11:16.669Z,14.30
2019-04-29T10:13:46.318Z,14.40
2019-04-29T10:16:35.930Z,14.40
2019-04-29T10:19:15.570Z,14.40
2019-04-29T10:21:45.183Z,14.40
2019-04-29T10:24:14.784Z,14.50
2019-04-29T10:26:44.487Z,14.50
2019-04-29T10:29:18.478Z,14.50
2019-04-29T10:31:48.524Z,14.50
2019-04-29T10:34:19.223Z,14.60
2019-04-29T10:36:52.307Z,14.60
2019-04-29T10:39:36.269Z,14.60
2019-04-29T10:42:06.799Z,14.60
2019-04-29T10:44:56.784Z,14.60
2019-04-29T10:47:38.759Z,14.60
2019-04-29T10:50:15.371Z,14.60
2019-04-29T10:52:43.625Z,14.50
2019-04-29T10:55:13.591Z,14.60
2019-04-29T10:57:44.874Z,14.60
2019-04-29T11:00:26.001Z,14.50
2019-04-29T11:02:55.630Z,14.50
2019-04-29T11:06:00.073Z,14.60
2019-04-29T11:08:24.944Z,14.60
2019-04-29T11:11:02.205Z,14.70
2019-04-29T11:13:27.011Z,14.70
2019-04-29T11:15:57.888Z,14.70
2019-04-29T11:18:27.588Z,14.80
2019-04-29T11:20:57.330Z,14.70
2019-04-29T11:23:35.931Z,14.80
2019-04-29T11:26:30.871Z,14.70
2019-04-29T11:29:01.105Z,14.70
2019-04-29T11:31:32.332Z,14.70
2019-04-29T11:34:26.405Z,14.70
2019-04-29T11:36:56.283Z,14.70
2019-04-29T11:39:26.047Z,14.60
2019-04-29T11:41:59.535Z,14.60
2019-04-29T11:44:27.940Z,14.50
2019-04-29T11:46:57.766Z,14.50
2019-04-29T11:49:37.159Z,14.40
2019-04-29T11:52:09.767Z,14.40
2019-04-29T11:54:38.454Z,14.30
2019-04-29T11:57:09.769Z,14.30
2019-04-29T11:59:58.644Z,14.30
2019-04-29T12:03:02.715Z,14.20
2019-04-29T12:05:57.571Z,14.20
2019-04-29T12:08:27.543Z,14.20
2019-04-29T12:11:06.772Z,14.20
2019-04-29T12:13:35.206Z,14.20
2019-04-29T12:16:19.701Z,14.20
2019-04-29T12:18:53.413Z,14.20
2019-04-29T12:21:40.202Z,14.20
2019-04-29T12:24:10.235Z,14.10
2019-04-29T12:26:44.289Z,14.00
2019-04-29T12:29:13.634Z,13.90
2019-04-29T12:31:57.122Z,13.90
2019-04-29T12:34:36.326Z,13.80
2019-04-29T12:37:13.223Z,13.80
2019-04-29T12:40:01.515Z,13.70
2019-04-29T12:42:51.282Z,13.70
2019-04-29T12:45:27.729Z,13.60
2019-04-29T12:47:57.452Z,13.60
2019-04-29T12:50:27.546Z,13.50
2019-04-29T12:52:57.085Z,13.50
2019-04-29T12:55:45.214Z,13.40
2019-04-29T12:58:09.119Z,13.40
2019-04-29T13:00:47.413Z,13.30
2019-04-29T13:03:39.530Z,13.30
2019-04-29T13:06:23.632Z,13.30
2019-04-29T13:08:55.155Z,13.20
2019-04-29T13:11:37.468Z,13.10
2019-04-29T13:14:01.889Z,13.10
2019-04-29T13:16:36.925Z,13.00
2019-04-29T13:19:29.844Z,13.00
2019-04-29T13:22:00.463Z,12.90
2019-04-29T13:24:30.570Z,12.90
2019-04-29T13:27:00.267Z,12.90
2019-04-29T13:29:32.133Z,12.90
2019-04-29T13:32:01.920Z,12.90
2019-04-29T13:34:36.667Z,12.90
2019-04-29T13:37:08.021Z,12.90
2019-04-29T13:39:40.428Z,12.90
2019-04-29T13:42:15.393Z,12.90
2019-04-29T13:44:50.356Z,12.90
2019-04-29T13:47:32.949Z,12.90
2019-04-29T13:50:33.956Z,12.90
2019-04-29T13:52:46.701Z,12.90
2019-04-29T13:55:18.127Z,12.90
2019-04-29T13:57:49.573Z,12.90
2019-04-29T14:00:55.762Z,12.90
2019-04-29T14:03:36.777Z,12.80
2019-04-29T14:06:07.920Z,12.90
2019-04-29T14:08:37.834Z,12.80
2019-04-29T14:11:07.410Z,12.80
2019-04-29T14:13:39.013Z,12.80
2019-04-29T14:16:11.928Z,12.90
2019-04-29T14:18:43.607Z,12.90
2019-04-29T14:21:11.988Z,12.90
2019-04-29T14:23:42.082Z,12.90
2019-04-29T14:26:11.694Z,13.00
2019-04-29T14:28:41.715Z,13.00
2019-04-29T14:31:11.433Z,13.00
2019-04-29T14:33:49.868Z,13.00
2019-04-29T14:36:19.925Z,13.00
2019-04-29T14:38:51.023Z,13.00
2019-04-29T14:41:21.197Z,12.90
2019-04-29T14:44:01.405Z,12.90
2019-04-29T14:46:40.318Z,12.90
2019-04-29T14:49:14.443Z,12.90
2019-04-29T14:51:44.049Z,12.90
2019-04-29T14:54:13.673Z,12.90
2019-04-29T14:56:43.618Z,12.90
2019-04-29T14:59:13.753Z,12.90
2019-04-29T15:01:49.893Z,12.90
2019-04-29T15:04:23.059Z,12.90
2019-04-29T15:06:53.312Z,12.90
2019-04-29T15:09:23.096Z,12.90
2019-04-29T15:12:17.173Z,12.90
2019-04-29T15:15:08.394Z,12.80
2019-04-29T15:17:56.487Z,12.80
2019-04-29T15:20:57.539Z,12.80
2019-04-29T15:23:28.688Z,12.80
2019-04-29T15:25:58.458Z,12.70
2019-04-29T15:28:28.146Z,12.70
2019-04-29T15:30:57.754Z,12.70
2019-04-29T15:33:30.643Z,12.70
2019-04-29T15:36:01.550Z,12.70
2019-04-29T15:38:35.469Z,12.70
2019-04-29T15:41:05.975Z,12.70
2019-04-29T15:43:47.345Z,12.70
2019-04-29T15:46:11.329Z,12.70
2019-04-29T15:48:38.583Z,12.70
2019-04-29T15:51:09.115Z,12.70
2019-04-29T15:53:40.771Z,12.70
2019-04-29T15:56:27.625Z,12.80
2019-04-29T15:58:42.075Z,12.70
2019-04-29T16:01:17.100Z,12.70
2019-04-29T16:03:43.652Z,12.70
2019-04-29T16:06:41.440Z,12.70
2019-04-29T16:12:17.263Z,12.70
2019-04-29T16:14:49.151Z,12.70
2019-04-29T16:17:20.679Z,12.70
2019-04-29T16:19:49.657Z,12.70
2019-04-29T16:22:20.439Z,12.60
2019-04-29T16:24:51.046Z,12.60
2019-04-29T16:27:20.627Z,12.70
2019-04-29T16:32:40.822Z,12.60
2019-04-29T16:35:10.727Z,12.60
2019-04-29T16:37:40.329Z,12.60
2019-04-29T16:40:10.821Z,12.60
2019-04-29T16:42:56.653Z,12.60
2019-04-29T16:45:35.453Z,12.60
2019-04-29T16:48:05.006Z,12.60
2019-04-29T16:50:35.418Z,12.60
2019-04-29T16:53:04.946Z,12.60
2019-04-29T16:55:35.836Z,12.60
2019-04-29T16:58:07.809Z,12.60
2019-04-29T17:00:37.662Z,12.70
2019-04-29T17:03:07.467Z,12.70
2019-04-29T17:05:38.034Z,12.70
2019-04-29T17:08:09.516Z,12.70
2019-04-29T17:10:49.426Z,12.70
2019-04-29T17:13:23.815Z,12.70
2019-04-29T17:15:52.584Z,12.70
2019-04-29T17:18:23.130Z,12.70
2019-04-29T17:20:52.958Z,12.70
2019-04-29T17:23:24.370Z,12.70
2019-04-29T17:25:54.128Z,12.70
2019-04-29T17:28:39.278Z,12.70
2019-04-29T17:31:40.601Z,12.70
2019-04-29T17:34:29.400Z,12.70
2019-04-29T17:35:15.560Z,12.70
2019-04-29T17:35:15.774Z,12.60
2019-04-29T17:36:46.504Z,12.70
2019-04-29T17:39:16.208Z,12.60
2019-04-29T17:41:46.162Z,12.60
2019-04-29T17:44:40.647Z,12.60
2019-04-29T17:47:29.147Z,12.60
2019-04-29T17:50:16.454Z,12.60
2019-04-29T17:52:46.105Z,12.60
2019-04-29T17:55:38.096Z,12.60
2019-04-29T17:58:13.531Z,12.60
2019-04-29T18:01:16.222Z,12.60
2019-04-29T18:04:03.714Z,12.50
2019-04-29T18:06:40.187Z,12.50
2019-04-29T18:09:29.105Z,12.50
2019-04-29T18:12:01.249Z,12.50
2019-04-29T18:14:37.788Z,12.50
2019-04-29T18:17:02.254Z,12.50
2019-04-29T18:19:50.742Z,12.50
2019-04-29T18:22:48.389Z,12.40
2019-04-29T18:25:31.175Z,12.40
2019-04-29T18:28:00.062Z,12.40
2019-04-29T18:30:35.870Z,12.40
2019-04-29T18:33:00.926Z,12.40
2019-04-29T18:35:30.554Z,12.40
2019-04-29T18:38:00.172Z,12.40
2019-04-29T18:40:30.231Z,12.40
2019-04-29T18:43:00.994Z,12.40
2019-04-29T18:45:34.277Z,12.40
2019-04-29T18:48:01.945Z,12.40
2019-04-29T18:50:34.191Z,12.40
2019-04-29T18:53:02.977Z,12.40
2019-04-29T18:55:32.602Z,12.40
2019-04-29T18:58:02.747Z,12.40
2019-04-29T19:00:32.334Z,12.40
2019-04-29T19:03:01.972Z,12.40
2019-04-29T19:05:37.537Z,12.40
2019-04-29T19:08:14.001Z,12.40
2019-04-29T19:10:38.926Z,12.40
2019-04-29T19:13:12.873Z,12.40
2019-04-29T19:15:45.025Z,12.40
2019-04-29T19:18:12.437Z,12.40
2019-04-29T19:20:47.813Z,12.40
2019-04-29T19:23:22.555Z,12.40
2019-04-29T19:25:49.807Z,12.40
2019-04-29T19:28:29.775Z,12.40
2019-04-29T19:30:51.346Z,12.30
2019-04-29T19:33:21.167Z,12.30
2019-04-29T19:35:50.825Z,12.40
2019-04-29T19:38:20.432Z,12.30
2019-04-29T19:40:49.939Z,12.30
2019-04-29T19:43:19.454Z,12.30
2019-04-29T19:45:50.464Z,12.30
2019-04-29T19:48:22.494Z,12.30
2019-04-29T19:51:13.488Z,12.30
2019-04-29T19:53:22.671Z,12.30
2019-04-29T19:56:03.559Z,12.30
2019-04-29T19:58:29.582Z,12.30
2019-04-29T20:01:09.800Z,12.30
2019-04-29T20:03:35.761Z,12.20
2019-04-29T20:06:09.204Z,12.30
2019-04-29T20:08:52.622Z,12.20
2019-04-29T20:11:14.231Z,12.30
2019-04-29T20:13:41.209Z,12.20
2019-04-29T20:16:39.774Z,12.20
2019-04-29T20:19:16.161Z,12.20
2019-04-29T20:21:39.794Z,12.20
2019-04-29T20:24:15.646Z,12.30
2019-04-29T20:26:43.977Z,12.20
2019-04-29T20:29:12.335Z,12.20
2019-04-29T20:31:48.568Z,12.20
2019-04-29T20:34:13.575Z,12.20
2019-04-29T20:36:45.472Z,12.20
2019-04-29T20:39:16.960Z,12.20
2019-04-29T20:41:48.706Z,12.20
2019-04-29T20:44:17.704Z,12.20
2019-04-29T20:47:13.189Z,12.20
2019-04-29T20:49:18.696Z,12.20
2019-04-29T20:51:52.443Z,12.20
2019-04-29T20:54:25.407Z,12.20
2019-04-29T20:57:02.833Z,12.20
2019-04-29T20:59:27.393Z,12.20
2019-04-29T21:02:11.317Z,12.20
2019-04-29T21:04:38.602Z,12.20
2019-04-29T21:07:03.077Z,12.20
2019-04-29T21:09:32.701Z,12.20
2019-04-29T21:12:20.562Z,12.20
2019-04-29T21:14:53.182Z,12.20
2019-04-29T21:17:30.772Z,12.20
2019-04-29T21:19:54.398Z,12.20
2019-04-29T21:22:25.994Z,12.20
2019-04-29T21:24:55.298Z,12.20
2019-04-29T21:27:26.045Z,12.20
2019-04-29T21:29:55.704Z,12.20
2019-04-29T21:32:25.820Z,12.20
2019-04-29T21:35:26.987Z,12.20
2019-04-29T21:38:17.897Z,12.20
2019-04-29T21:40:51.456Z,12.20
2019-04-29T21:43:26.117Z,12.20
2019-04-29T21:45:55.900Z,12.20
2019-04-29T21:48:33.446Z,12.20
2019-04-29T21:50:57.316Z,12.20
2019-04-29T21:53:27.093Z,12.20
2019-04-29T21:55:59.709Z,12.20
2019-04-29T21:58:28.699Z,12.20
2019-04-29T22:01:00.251Z,12.20
2019-04-29T22:03:30.522Z,12.20
2019-04-29T22:06:00.502Z,12.20
2019-04-29T22:08:30.302Z,12.20
2019-04-29T22:11:04.810Z,12.20
2019-04-29T22:13:35.458Z,12.30
2019-04-29T22:16:02.527Z,12.20
2019-04-29T22:18:32.105Z,12.30
2019-04-29T22:21:01.751Z,12.20
2019-04-29T22:23:31.731Z,12.20
2019-04-29T22:26:01.262Z,12.20
2019-04-29T22:28:30.806Z,12.20
2019-04-29T22:31:00.578Z,12.20
2019-04-29T22:33:34.946Z,12.20
2019-04-29T22:36:01.605Z,12.20
2019-04-29T22:38:32.100Z,12.20
2019-04-29T22:41:04.982Z,12.20
2019-04-29T22:43:44.619Z,12.20
2019-04-29T22:46:12.338Z,12.20
2019-04-29T22:48:45.460Z,12.20
2019-04-29T22:51:17.119Z,12.20
2019-04-29T22:53:47.095Z,12.20
2019-04-29T22:56:15.973Z,12.20
2019-04-29T22:58:47.474Z,12.20
2019-04-29T23:01:17.782Z,12.20
2019-04-29T23:03:47.554Z,12.20
2019-04-29T23:06:17.219Z,12.20
2019-04-29T23:08:46.779Z,12.20
2019-04-29T23:11:16.313Z,12.20
2019-04-29T23:13:48.959Z,12.20
2019-04-29T23:16:17.058Z,12.20
2019-04-29T23:18:46.724Z,12.20
2019-04-29T23:21:42.922Z,12.10
2019-04-29T23:24:21.851Z,12.20
2019-04-29T23:26:51.582Z,12.20
2019-04-29T23:29:21.132Z,12.20
2019-04-29T23:31:50.974Z,12.20
2019-04-29T23:34:20.514Z,12.20
2019-04-29T23:36:50.312Z,12.20
2019-04-29T23:39:19.938Z,12.20
2019-04-29T23:41:49.898Z,12.20
2019-04-29T23:44:19.719Z,12.20
2019-04-29T23:46:49.307Z,12.20
2019-04-29T23:49:19.131Z,12.20
2019-04-29T23:51:48.743Z,12.20
2019-04-29T23:54:18.302Z,12.20
2019-04-29T23:57:06.177Z,12.20
2019-04-29T23:59:37.637Z,12.20
